createdAt,value
2023-04-05T00:02:18.902Z,102246.34
2023-04-05T00:04:50.570Z,102239.63
2023-04-05T00:07:17.494Z,102235.78
2023-04-05T00:09:43.908Z,102235.41
2023-04-05T00:12:10.797Z,102237.84
2023-04-05T00:14:37.406Z,102234.19
2023-04-05T00:17:04.300Z,102244.44
2023-04-05T00:19:34.002Z,102246.88
2023-04-05T00:22:00.736Z,102246.78
2023-04-05T00:24:29.540Z,102244.81
2023-04-05T00:26:56.799Z,102248.38
2023-04-05T00:29:23.596Z,102244.44
2023-04-05T00:31:50.430Z,102243.03
2023-04-05T00:34:17.275Z,102245.19
2023-04-05T00:36:44.095Z,102248.78
2023-04-05T00:39:10.530Z,102240.84
2023-04-05T00:41:37.225Z,102247.06
2023-04-05T00:44:04.278Z,102239.63
2023-04-05T00:46:34.569Z,102240.53
2023-04-05T00:49:01.465Z,102241.28
2023-04-05T00:51:28.328Z,102237.72
2023-04-05T00:53:55.125Z,102245.09
2023-04-05T00:56:22.951Z,102241.91
2023-04-05T00:58:52.440Z,102240.22
2023-04-05T01:01:23.063Z,102242.09
2023-04-05T01:03:53.713Z,102233.06
2023-04-05T01:06:20.329Z,102227.56
2023-04-05T01:08:47.107Z,102225.81
2023-04-05T01:11:14.565Z,102230.34
2023-04-05T01:13:41.409Z,102227.75
2023-04-05T01:16:09.072Z,102224.94
2023-04-05T01:18:38.266Z,102223.00
2023-04-05T01:21:26.160Z,102225.09
2023-04-05T01:23:53.252Z,102223.78
2023-04-05T01:26:38.941Z,102222.69
2023-04-05T01:29:25.528Z,102212.63
2023-04-05T01:32:09.687Z,102212.44
2023-04-05T01:34:48.725Z,102206.09
2023-04-05T01:37:18.623Z,102199.78
2023-04-05T01:39:50.673Z,102200.63
2023-04-05T01:42:24.474Z,102191.47
2023-04-05T01:44:52.195Z,102190.16
2023-04-05T01:47:19.177Z,102192.66
2023-04-05T01:49:47.420Z,102194.22
2023-04-05T01:52:14.346Z,102187.03
2023-04-05T01:54:42.255Z,102188.41
2023-04-05T01:57:10.288Z,102188.97
2023-04-05T01:59:41.755Z,102189.22
2023-04-05T02:02:09.712Z,102173.34
2023-04-05T02:04:36.599Z,102182.63
2023-04-05T02:07:04.428Z,102183.50
2023-04-05T02:09:32.193Z,102178.13
2023-04-05T02:11:59.252Z,102175.88
2023-04-05T02:14:27.051Z,102170.78
2023-04-05T02:16:56.699Z,102170.75
2023-04-05T02:19:26.167Z,102166.56
2023-04-05T02:21:56.671Z,102170.75
2023-04-05T02:24:24.672Z,102165.22
2023-04-05T02:26:51.629Z,102165.38
2023-04-05T02:29:19.477Z,102171.72
2023-04-05T02:31:48.528Z,102172.47
2023-04-05T02:34:16.720Z,102168.53
2023-04-05T02:36:47.859Z,102165.16
2023-04-05T02:39:14.773Z,102166.38
2023-04-05T02:41:42.206Z,102161.34
2023-04-05T02:44:09.120Z,102164.56
2023-04-05T02:46:35.780Z,102163.47
2023-04-05T02:49:02.476Z,102158.88
2023-04-05T02:51:29.236Z,102156.09
2023-04-05T02:53:56.395Z,102153.88
2023-04-05T02:56:23.576Z,102147.00
2023-04-05T02:58:50.306Z,102147.13
2023-04-05T03:01:18.019Z,102147.66
2023-04-05T03:03:44.880Z,102151.38
2023-04-05T03:06:14.136Z,102149.34
2023-04-05T03:08:44.313Z,102137.94
2023-04-05T03:11:11.630Z,102140.63
2023-04-05T03:13:38.302Z,102144.47
2023-04-05T03:16:05.576Z,102136.56
2023-04-05T03:18:32.303Z,102143.78
2023-04-05T03:21:00.016Z,102140.31
2023-04-05T03:23:31.289Z,102136.19
2023-04-05T03:25:58.132Z,102134.66
2023-04-05T03:28:25.233Z,102134.66
2023-04-05T03:30:52.391Z,102131.31
2023-04-05T03:33:19.319Z,102133.06
2023-04-05T03:35:45.945Z,102133.72
2023-04-05T03:38:12.987Z,102135.28
2023-04-05T03:40:39.913Z,102132.84
2023-04-05T03:43:06.412Z,102134.16
2023-04-05T03:45:34.129Z,102132.47
2023-04-05T03:48:02.346Z,102129.53
2023-04-05T03:50:29.660Z,102133.78
2023-04-05T03:52:56.296Z,102122.88
2023-04-05T03:55:23.365Z,102127.38
2023-04-05T03:57:49.839Z,102124.47
2023-04-05T04:00:17.901Z,102121.34
2023-04-05T04:02:46.343Z,102127.66
2023-04-05T04:05:14.782Z,102129.03
2023-04-05T04:07:44.384Z,102123.91
2023-04-05T04:10:12.333Z,102122.78
2023-04-05T04:12:40.779Z,102114.94
2023-04-05T04:15:07.720Z,102124.00
2023-04-05T04:17:35.844Z,102116.28
2023-04-05T04:20:08.109Z,102114.22
2023-04-05T04:22:40.726Z,102110.13
2023-04-05T04:25:10.825Z,102123.81
2023-04-05T04:27:39.671Z,102124.97
2023-04-05T04:30:09.529Z,102126.16
2023-04-05T04:32:52.400Z,102126.56
2023-04-05T04:35:25.042Z,102119.84
2023-04-05T04:37:54.954Z,102109.03
2023-04-05T04:40:26.624Z,102103.72
2023-04-05T04:42:55.691Z,102099.44
2023-04-05T04:45:23.823Z,102095.72
2023-04-05T04:47:53.977Z,102101.84
2023-04-05T04:50:22.339Z,102100.25
2023-04-05T04:52:49.899Z,102097.19
2023-04-05T04:55:17.005Z,102103.63
2023-04-05T04:57:44.848Z,102097.09
2023-04-05T05:00:17.044Z,102092.13
2023-04-05T05:02:44.519Z,102093.19
2023-04-05T05:05:13.960Z,102083.72
2023-04-05T05:07:43.862Z,102080.06
2023-04-05T05:10:11.840Z,102088.09
2023-04-05T05:12:38.960Z,102086.28
2023-04-05T05:15:06.653Z,102096.78
2023-04-05T05:17:35.736Z,102088.81
2023-04-05T05:20:10.680Z,102087.44
2023-04-05T05:22:38.018Z,102084.91
2023-04-05T05:25:06.089Z,102093.03
2023-04-05T05:27:34.830Z,102094.16
2023-04-05T05:30:02.309Z,102090.84
2023-04-05T05:32:29.161Z,102089.97
2023-04-05T05:34:56.595Z,102093.00
2023-04-05T05:37:33.654Z,102098.94
2023-04-05T05:40:01.838Z,102114.09
2023-04-05T05:42:29.447Z,102102.03
2023-04-05T05:44:56.498Z,102099.06
2023-04-05T05:47:24.142Z,102096.09
2023-04-05T05:49:51.099Z,102097.66
2023-04-05T05:52:18.311Z,102109.66
2023-04-05T05:54:44.896Z,102116.06
2023-04-05T05:57:14.231Z,102094.53
2023-04-05T05:59:41.482Z,102097.22
2023-04-05T06:02:11.058Z,102102.41
2023-04-05T06:04:40.976Z,102088.63
2023-04-05T06:07:08.489Z,102095.59
2023-04-05T06:09:36.332Z,102091.16
2023-04-05T06:12:03.097Z,102089.31
2023-04-05T06:14:32.533Z,102092.22
2023-04-05T06:17:01.874Z,102094.31
2023-04-05T06:19:29.266Z,102084.56
2023-04-05T06:22:02.414Z,102092.16
2023-04-05T06:24:32.601Z,102078.06
2023-04-05T06:26:59.852Z,102081.31
2023-04-05T06:29:28.475Z,102080.50
2023-04-05T06:31:55.362Z,102075.56
2023-04-05T06:34:23.751Z,102075.00
2023-04-05T06:36:51.921Z,102080.72
2023-04-05T06:39:21.153Z,102077.09
2023-04-05T06:41:49.354Z,102084.69
2023-04-05T06:44:16.367Z,102086.72
2023-04-05T06:46:43.511Z,102075.16
2023-04-05T06:49:10.827Z,102074.44
2023-04-05T06:51:38.677Z,102074.34
2023-04-05T06:54:06.882Z,102074.94
2023-04-05T06:56:34.256Z,102076.91
2023-04-05T06:59:02.290Z,102073.56
2023-04-05T07:01:30.168Z,102073.66
2023-04-05T07:03:57.384Z,102071.53
2023-04-05T07:06:25.219Z,102071.38
2023-04-05T07:08:52.632Z,102057.63
2023-04-05T07:11:21.798Z,102068.97
2023-04-05T07:13:51.563Z,102056.59
2023-04-05T07:16:20.237Z,102054.56
2023-04-05T07:18:47.203Z,102051.88
2023-04-05T07:21:14.914Z,102054.09
2023-04-05T07:23:42.693Z,102059.53
2023-04-05T07:26:09.609Z,102050.50
2023-04-05T07:28:37.710Z,102050.28
2023-04-05T07:31:07.880Z,102041.03
2023-04-05T07:33:35.949Z,102046.06
2023-04-05T07:36:03.480Z,102049.16
2023-04-05T07:38:30.821Z,102040.13
2023-04-05T07:40:57.682Z,102040.31
2023-04-05T07:43:26.807Z,102030.38
2023-04-05T07:46:11.608Z,102036.09
2023-04-05T07:48:38.596Z,102024.53
2023-04-05T07:51:10.391Z,102037.66
2023-04-05T07:53:37.411Z,102032.38
2023-04-05T07:56:05.359Z,102034.25
2023-04-05T07:58:32.550Z,102029.50
2023-04-05T08:01:00.036Z,102032.91
2023-04-05T08:03:27.302Z,102042.28
2023-04-05T08:05:54.960Z,102039.50
2023-04-05T08:08:22.075Z,102034.44
2023-04-05T08:10:49.389Z,102027.22
2023-04-05T08:13:16.838Z,102031.19
2023-04-05T08:15:44.397Z,102035.97
2023-04-05T08:18:13.086Z,102043.78
2023-04-05T08:20:41.744Z,102047.31
2023-04-05T08:23:11.245Z,102042.88
2023-04-05T08:25:40.690Z,102046.88
2023-04-05T08:28:09.645Z,102033.66
2023-04-05T08:30:37.198Z,102043.56
2023-04-05T08:33:05.632Z,102037.94
2023-04-05T08:35:36.847Z,102032.03
2023-04-05T08:38:04.144Z,102025.38
2023-04-05T08:40:39.577Z,102025.72
2023-04-05T08:43:26.996Z,102016.34
2023-04-05T08:45:56.523Z,102023.88
2023-04-05T08:48:24.959Z,102035.91
2023-04-05T08:50:53.239Z,102026.09
2023-04-05T08:53:20.693Z,102033.66
2023-04-05T08:55:52.319Z,102030.81
2023-04-05T08:58:22.528Z,102027.22
2023-04-05T09:00:51.364Z,102023.34
2023-04-05T09:03:21.974Z,102030.06
2023-04-05T09:05:53.745Z,102028.09
2023-04-05T09:08:23.640Z,102023.84
2023-04-05T09:10:53.995Z,102021.81
2023-04-05T09:13:21.794Z,102025.94
2023-04-05T09:15:49.958Z,102017.88
2023-04-05T09:18:26.400Z,102020.84
2023-04-05T09:21:07.298Z,102013.88
2023-04-05T09:23:37.728Z,102021.53
2023-04-05T09:26:22.952Z,102019.94
2023-04-05T09:28:52.999Z,102016.47
2023-04-05T09:31:35.400Z,102010.00
2023-04-05T09:34:06.549Z,102004.63
2023-04-05T09:36:33.966Z,102009.56
2023-04-05T09:39:09.098Z,102014.16
2023-04-05T09:41:39.769Z,102005.47
2023-04-05T09:44:08.486Z,102004.88
2023-04-05T09:46:42.044Z,101997.50
2023-04-05T09:49:11.726Z,102013.25
2023-04-05T09:51:40.805Z,102006.94
2023-04-05T09:54:12.299Z,102013.00
2023-04-05T09:56:41.639Z,101999.22
2023-04-05T09:59:12.760Z,102007.66
2023-04-05T10:01:44.086Z,101990.94
2023-04-05T10:04:13.720Z,101992.97
2023-04-05T10:06:43.091Z,101986.81
2023-04-05T10:09:11.925Z,101982.81
2023-04-05T10:11:39.585Z,101982.06
2023-04-05T10:14:09.396Z,101983.81
2023-04-05T10:16:45.299Z,101976.41
2023-04-05T10:19:17.092Z,101973.72
2023-04-05T10:21:45.808Z,101967.47
2023-04-05T10:24:33.581Z,101968.59
2023-04-05T10:27:01.565Z,101966.22
2023-04-05T10:29:38.695Z,101974.06
2023-04-05T10:32:14.515Z,101972.38
2023-04-05T10:34:55.737Z,101972.72
2023-04-05T10:37:44.769Z,101967.06
2023-04-05T10:40:14.773Z,101971.44
2023-04-05T10:42:47.560Z,101959.09
2023-04-05T10:45:18.688Z,101962.53
2023-04-05T10:47:58.926Z,101955.59
2023-04-05T10:50:27.794Z,101952.84
2023-04-05T10:52:56.541Z,101940.44
2023-04-05T10:55:23.486Z,101938.59
2023-04-05T10:57:51.071Z,101922.94
2023-04-05T11:00:19.539Z,101944.34
2023-04-05T11:02:47.545Z,101919.31
2023-04-05T11:05:34.288Z,101912.31
2023-04-05T11:08:04.207Z,101912.13
2023-04-05T11:10:34.386Z,101917.22
2023-04-05T11:13:00.899Z,101916.16
2023-04-05T11:15:31.518Z,101916.22
2023-04-05T11:18:10.003Z,101923.13
2023-04-05T11:20:57.058Z,101923.06
2023-04-05T11:23:26.550Z,101912.53
2023-04-05T11:26:05.058Z,101908.81
2023-04-05T11:28:44.084Z,101904.88
2023-04-05T11:31:19.475Z,101900.13
2023-04-05T11:33:55.806Z,101910.69
2023-04-05T11:36:39.840Z,101910.00
2023-04-05T11:39:18.912Z,101906.41
2023-04-05T11:41:47.518Z,101899.25
2023-04-05T11:44:15.679Z,101900.06
2023-04-05T11:46:43.028Z,101891.34
2023-04-05T11:49:10.009Z,101895.84
2023-04-05T11:51:37.145Z,101889.19
2023-04-05T11:54:04.221Z,101877.06
2023-04-05T11:56:31.674Z,101863.31
2023-04-05T11:58:58.759Z,101862.63
2023-04-05T12:01:26.205Z,101865.03
2023-04-05T12:03:58.661Z,101862.88
2023-04-05T12:06:26.153Z,101868.00
2023-04-05T12:08:56.203Z,101867.38
2023-04-05T12:11:27.771Z,101872.56
2023-04-05T12:13:56.074Z,101881.19
2023-04-05T12:16:24.212Z,101871.25
2023-04-05T12:18:56.404Z,101867.31
2023-04-05T12:21:24.450Z,101867.06
2023-04-05T12:23:53.768Z,101862.63
2023-04-05T12:26:24.402Z,101860.81
2023-04-05T12:28:56.122Z,101849.53
2023-04-05T12:31:36.362Z,101841.47
2023-04-05T12:34:03.467Z,101838.53
2023-04-05T12:36:32.785Z,101836.09
2023-04-05T12:39:02.549Z,101838.50
2023-04-05T12:41:34.660Z,101840.16
2023-04-05T12:44:47.613Z,101823.88
2023-04-05T12:47:19.131Z,101829.16
2023-04-05T12:49:46.866Z,101832.59
2023-04-05T12:52:21.637Z,101831.78
2023-04-05T12:54:57.776Z,101836.09
2023-04-05T12:57:33.507Z,101832.97
2023-04-05T13:00:02.834Z,101830.19
2023-04-05T13:02:31.213Z,101826.84
2023-04-05T13:04:58.973Z,101827.22
2023-04-05T13:07:26.395Z,101822.59
2023-04-05T13:09:54.857Z,101813.56
2023-04-05T13:12:23.542Z,101809.28
2023-04-05T13:14:55.339Z,101811.44
2023-04-05T13:17:22.787Z,101795.31
2023-04-05T13:19:50.364Z,101792.19
2023-04-05T13:22:19.926Z,101796.50
2023-04-05T13:24:48.171Z,101790.16
2023-04-05T13:27:19.808Z,101794.31
2023-04-05T13:29:52.242Z,101796.88
2023-04-05T13:32:21.522Z,101785.84
2023-04-05T13:34:52.004Z,101792.78
2023-04-05T13:37:20.027Z,101794.34
2023-04-05T13:39:49.195Z,101794.88
2023-04-05T13:42:19.876Z,101800.41
2023-04-05T13:44:47.346Z,101798.38
2023-04-05T13:47:18.891Z,101808.16
2023-04-05T13:49:45.789Z,101810.25
2023-04-05T13:52:16.285Z,101799.41
2023-04-05T13:54:44.171Z,101792.16
2023-04-05T13:57:14.895Z,101791.16
2023-04-05T13:59:43.005Z,101787.69
2023-04-05T14:02:29.311Z,101780.56
2023-04-05T14:05:02.899Z,101787.00
2023-04-05T14:07:32.411Z,101781.03
2023-04-05T14:10:07.563Z,101788.03
2023-04-05T14:12:36.347Z,101776.66
2023-04-05T14:15:05.687Z,101782.03
2023-04-05T14:17:40.282Z,101773.44
2023-04-05T14:20:11.830Z,101777.09
2023-04-05T14:22:41.093Z,101764.47
2023-04-05T14:25:13.966Z,101774.56
2023-04-05T14:27:42.840Z,101771.81
2023-04-05T14:30:18.096Z,101769.03
2023-04-05T14:32:47.286Z,101771.06
2023-04-05T14:35:16.252Z,101774.53
2023-04-05T14:37:44.310Z,101775.44
2023-04-05T14:40:13.496Z,101780.78
2023-04-05T14:42:49.077Z,101770.25
2023-04-05T14:45:20.134Z,101771.81
2023-04-05T14:47:53.101Z,101772.22
2023-04-05T14:50:20.890Z,101773.63
2023-04-05T14:52:48.172Z,101766.84
2023-04-05T14:55:19.656Z,101759.72
2023-04-05T14:57:55.413Z,101761.09
2023-04-05T15:00:22.902Z,101755.97
2023-04-05T15:03:09.074Z,101757.31
2023-04-05T15:05:38.909Z,101752.13
2023-04-05T15:08:06.148Z,101749.38
2023-04-05T15:10:33.277Z,101745.59
2023-04-05T15:13:01.363Z,101753.38
2023-04-05T15:15:28.823Z,101755.56
2023-04-05T15:17:58.553Z,101754.59
2023-04-05T15:20:31.783Z,101751.63
2023-04-05T15:22:59.553Z,101755.06
2023-04-05T15:25:32.667Z,101764.66
2023-04-05T15:28:06.750Z,101771.91
2023-04-05T15:30:38.244Z,101754.44
2023-04-05T15:33:10.488Z,101753.84
2023-04-05T15:35:38.792Z,101756.09
2023-04-05T15:38:10.669Z,101748.81
2023-04-05T15:40:46.778Z,101754.66
2023-04-05T15:43:14.641Z,101754.34
2023-04-05T15:45:48.703Z,101744.44
2023-04-05T15:48:21.643Z,101746.72
2023-04-05T15:50:50.283Z,101743.41
2023-04-05T15:53:23.551Z,101748.66
2023-04-05T15:55:55.690Z,101740.94
2023-04-05T15:58:25.879Z,101734.69
2023-04-05T16:00:54.110Z,101731.03
2023-04-05T16:03:21.117Z,101726.16
2023-04-05T16:05:48.464Z,101727.00
2023-04-05T16:08:16.946Z,101734.78
2023-04-05T16:10:45.062Z,101725.47
2023-04-05T16:13:12.992Z,101730.19
2023-04-05T16:15:45.259Z,101721.56
2023-04-05T16:18:14.380Z,101723.25
2023-04-05T16:20:42.779Z,101717.72
2023-04-05T16:23:10.311Z,101718.94
2023-04-05T16:25:37.864Z,101720.53
2023-04-05T16:28:06.688Z,101720.75
2023-04-05T16:30:33.780Z,101723.03
2023-04-05T16:33:01.732Z,101721.50
2023-04-05T16:35:34.357Z,101718.97
2023-04-05T16:38:04.382Z,101713.22
2023-04-05T16:40:34.902Z,101702.63
2023-04-05T16:43:03.888Z,101711.22
2023-04-05T16:45:33.997Z,101708.31
2023-04-05T16:48:03.761Z,101706.94
2023-04-05T16:50:35.748Z,101702.91
2023-04-05T16:53:02.719Z,101701.88
2023-04-05T16:55:30.479Z,101705.91
2023-04-05T16:57:57.931Z,101700.66
2023-04-05T17:00:27.172Z,101704.47
2023-04-05T17:02:57.354Z,101711.56
2023-04-05T17:05:28.040Z,101702.31
2023-04-05T17:07:54.979Z,101713.59
2023-04-05T17:10:22.216Z,101708.50
2023-04-05T17:12:50.321Z,101710.38
2023-04-05T17:15:17.699Z,101710.97
2023-04-05T17:17:45.767Z,101713.25
2023-04-05T17:20:15.599Z,101708.22
2023-04-05T17:22:44.426Z,101715.38
2023-04-05T17:25:11.649Z,101711.94
2023-04-05T17:27:40.090Z,101716.03
2023-04-05T17:30:08.513Z,101711.44
2023-04-05T17:32:37.862Z,101715.19
2023-04-05T17:35:05.477Z,101710.47
2023-04-05T17:37:33.418Z,101718.31
2023-04-05T17:40:01.764Z,101721.16
2023-04-05T17:42:28.908Z,101720.81
2023-04-05T17:44:56.876Z,101725.88
2023-04-05T17:47:51.085Z,101722.28
2023-04-05T17:50:18.962Z,101719.31
2023-04-05T17:52:46.906Z,101721.78
2023-04-05T17:55:16.336Z,101726.28
2023-04-05T17:57:44.468Z,101730.63
2023-04-05T18:00:11.898Z,101735.16
2023-04-05T18:02:41.106Z,101730.06
2023-04-05T18:05:10.456Z,101735.25
2023-04-05T18:07:38.485Z,101735.69
2023-04-05T18:10:07.398Z,101740.81
2023-04-05T18:12:34.636Z,101736.25
2023-04-05T18:15:07.669Z,101739.03
2023-04-05T18:17:34.978Z,101734.41
2023-04-05T18:20:03.836Z,101734.47
2023-04-05T18:22:35.785Z,101736.28
2023-04-05T18:25:02.965Z,101738.09
2023-04-05T18:27:33.775Z,101739.22
2023-04-05T18:30:01.313Z,101737.66
2023-04-05T18:32:28.177Z,101730.50
2023-04-05T18:34:55.352Z,101744.97
2023-04-05T18:37:24.253Z,101731.91
2023-04-05T18:39:53.984Z,101739.84
2023-04-05T18:42:21.050Z,101742.56
2023-04-05T18:44:49.492Z,101742.66
2023-04-05T18:47:17.763Z,101742.94
2023-04-05T18:49:44.754Z,101748.59
2023-04-05T18:52:11.391Z,101750.25
2023-04-05T18:54:39.949Z,101747.78
2023-04-05T18:57:09.799Z,101747.22
2023-04-05T18:59:36.924Z,101752.81
2023-04-05T19:02:05.142Z,101763.03
2023-04-05T19:04:34.178Z,101762.59
2023-04-05T19:07:02.793Z,101762.31
2023-04-05T19:09:35.187Z,101770.13
2023-04-05T19:12:01.971Z,101766.34
2023-04-05T19:14:29.407Z,101772.09
2023-04-05T19:16:58.235Z,101773.34
2023-04-05T19:19:26.557Z,101774.34
2023-04-05T19:21:53.262Z,101776.91
2023-04-05T19:24:22.038Z,101772.38
2023-04-05T19:26:48.513Z,101776.28
2023-04-05T19:29:15.575Z,101769.69
2023-04-05T19:31:43.795Z,101773.50
2023-04-05T19:34:11.490Z,101770.69
2023-04-05T19:36:39.803Z,101770.13
2023-04-05T19:39:07.026Z,101777.00
2023-04-05T19:41:34.099Z,101776.31
2023-04-05T19:44:01.727Z,101774.09
2023-04-05T19:46:39.957Z,101775.06
2023-04-05T19:49:12.031Z,101770.44
2023-04-05T19:51:38.835Z,101773.50
2023-04-05T19:54:08.937Z,101775.47
2023-04-05T19:56:38.761Z,101766.94
2023-04-05T19:59:22.515Z,101766.75
2023-04-05T20:01:49.742Z,101766.69
2023-04-05T20:04:18.852Z,101762.31
2023-04-05T20:06:52.940Z,101763.69
2023-04-05T20:09:30.841Z,101767.88
2023-04-05T20:12:03.879Z,101765.44
2023-04-05T20:14:49.675Z,101761.53
2023-04-05T20:17:19.073Z,101753.00
2023-04-05T20:19:59.952Z,101755.94
2023-04-05T20:22:27.173Z,101757.31
2023-04-05T20:24:53.903Z,101748.63
2023-04-05T20:27:21.306Z,101750.72
2023-04-05T20:29:49.933Z,101749.84
2023-04-05T20:32:18.731Z,101739.94
2023-04-05T20:34:46.405Z,101749.59
2023-04-05T20:37:13.717Z,101750.72
2023-04-05T20:39:43.519Z,101745.88
2023-04-05T20:42:11.589Z,101748.88
2023-04-05T20:44:38.487Z,101745.06
2023-04-05T20:47:06.040Z,101748.56
2023-04-05T20:49:33.792Z,101749.06
2023-04-05T20:52:03.446Z,101747.91
2023-04-05T20:54:30.584Z,101746.75
2023-04-05T20:56:57.463Z,101735.91
2023-04-05T20:59:26.773Z,101727.81
2023-04-05T21:01:54.589Z,101732.56
2023-04-05T21:04:21.560Z,101739.72
2023-04-05T21:06:52.780Z,101726.69
2023-04-05T21:09:22.061Z,101738.28
2023-04-05T21:11:49.848Z,101731.63
2023-04-05T21:14:18.575Z,101724.53
2023-04-05T21:16:45.113Z,101727.59
2023-04-05T21:19:11.898Z,101724.03
2023-04-05T21:21:38.937Z,101725.81
2023-04-05T21:24:09.474Z,101729.47
2023-04-05T21:26:37.572Z,101724.81
2023-04-05T21:29:04.368Z,101723.06
2023-04-05T21:31:31.199Z,101728.69
2023-04-05T21:33:59.545Z,101718.44
2023-04-05T21:36:30.594Z,101725.16
2023-04-05T21:39:00.445Z,101718.13
2023-04-05T21:41:27.695Z,101716.78
2023-04-05T21:43:54.664Z,101723.66
2023-04-05T21:46:21.869Z,101713.56
2023-04-05T21:48:49.234Z,101725.44
2023-04-05T21:51:18.852Z,101719.75
2023-04-05T21:53:51.877Z,101720.69
2023-04-05T21:56:19.710Z,101720.03
2023-04-05T21:58:49.233Z,101724.84
2023-04-05T22:01:16.288Z,101721.97
2023-04-05T22:03:43.002Z,101726.56
2023-04-05T22:06:11.485Z,101721.84
2023-04-05T22:08:38.252Z,101727.28
2023-04-05T22:11:06.760Z,101722.47
2023-04-05T22:13:35.047Z,101714.75
2023-04-05T22:16:02.497Z,101721.13
2023-04-05T22:18:31.024Z,101717.78
2023-04-05T22:21:01.772Z,101719.56
2023-04-05T22:23:29.972Z,101719.09
2023-04-05T22:25:56.675Z,101712.56
2023-04-05T22:28:24.938Z,101716.34
2023-04-05T22:30:52.764Z,101708.84
2023-04-05T22:33:20.553Z,101717.06
2023-04-05T22:35:49.300Z,101707.28
2023-04-05T22:38:18.635Z,101714.47
2023-04-05T22:40:47.319Z,101708.47
2023-04-05T22:43:14.552Z,101708.72
2023-04-05T22:45:41.687Z,101715.59
2023-04-05T22:48:09.659Z,101711.75
2023-04-05T22:50:38.021Z,101710.41
2023-04-05T22:53:06.186Z,101708.94
2023-04-05T22:55:34.385Z,101704.59
2023-04-05T22:58:01.690Z,101711.97
2023-04-05T23:00:30.706Z,101707.00
2023-04-05T23:02:59.282Z,101708.25
2023-04-05T23:05:29.825Z,101701.47
2023-04-05T23:07:59.099Z,101701.94
2023-04-05T23:10:26.465Z,101699.56
2023-04-05T23:12:53.191Z,101704.16
2023-04-05T23:15:22.357Z,101694.13
2023-04-05T23:17:50.916Z,101687.88
2023-04-05T23:20:19.123Z,101692.03
2023-04-05T23:22:48.355Z,101685.06
2023-04-05T23:25:16.480Z,101680.28
2023-04-05T23:27:44.988Z,101681.19
2023-04-05T23:30:13.499Z,101683.88
2023-04-05T23:32:42.632Z,101681.88
2023-04-05T23:35:15.828Z,101675.91
2023-04-05T23:37:43.865Z,101675.50
2023-04-05T23:40:12.991Z,101676.44
2023-04-05T23:42:41.762Z,101676.66
2023-04-05T23:45:15.107Z,101677.84
2023-04-05T23:47:45.882Z,101673.72
2023-04-05T23:50:12.508Z,101667.97
2023-04-05T23:52:39.378Z,101665.38
2023-04-05T23:55:08.081Z,101660.09
2023-04-05T23:57:37.469Z,101659.41
